sensor_id;sensor_type;location;lat;lon;timestamp;pressure;altitude;pressure_sealevel;temperature
60936;BMP280;46804;51.786;19.520;2023-12-14T00:00:04;155168.66;;;3.99
60936;BMP280;46804;51.786;19.520;2023-12-14T00:04:05;155164.81;;;3.98
60936;BMP280;46804;51.786;19.520;2023-12-14T00:08:06;155150.81;;;3.92
60936;BMP280;46804;51.786;19.520;2023-12-14T00:12:06;155166.13;;;3.98
60936;BMP280;46804;51.786;19.520;2023-12-14T00:16:08;155134.19;;;3.86
60936;BMP280;46804;51.786;19.520;2023-12-14T00:20:09;155107.38;;;3.75
60936;BMP280;46804;51.786;19.520;2023-12-14T00:24:11;155107.38;;;3.75
60936;BMP280;46804;51.786;19.520;2023-12-14T00:28:12;155109.97;;;3.76
60936;BMP280;46804;51.786;19.520;2023-12-14T00:32:12;155098.47;;;3.72
60936;BMP280;46804;51.786;19.520;2023-12-14T00:36:19;155101.00;;;3.73
60936;BMP280;46804;51.786;19.520;2023-12-14T00:40:20;155088.25;;;3.68
60936;BMP280;46804;51.786;19.520;2023-12-14T00:44:21;155116.34;;;3.79
60936;BMP280;46804;51.786;19.520;2023-12-14T00:48:22;155087.00;;;3.68
60936;BMP280;46804;51.786;19.520;2023-12-14T00:52:23;155093.38;;;3.70
60936;BMP280;46804;51.786;19.520;2023-12-14T00:56:24;155080.56;;;3.65
60936;BMP280;46804;51.786;19.520;2023-12-14T01:00:25;155095.91;;;3.71
60936;BMP280;46804;51.786;19.520;2023-12-14T01:04:25;155098.47;;;3.72
60936;BMP280;46804;51.786;19.520;2023-12-14T01:08:26;155076.78;;;3.64
60936;BMP280;46804;51.786;19.520;2023-12-14T01:12:27;155085.69;;;3.67
60936;BMP280;46804;51.786;19.520;2023-12-14T01:16:28;155032.09;;;3.46
60936;BMP280;46804;51.786;19.520;2023-12-14T01:20:28;155066.56;;;3.60
60936;BMP280;46804;51.786;19.520;2023-12-14T01:24:29;155028.25;;;3.45
60936;BMP280;46804;51.786;19.520;2023-12-14T01:28:30;155037.22;;;3.48
60936;BMP280;46804;51.786;19.520;2023-12-14T01:32:31;155034.63;;;3.47
60936;BMP280;46804;51.786;19.520;2023-12-14T01:36:32;155027.00;;;3.44
60936;BMP280;46804;51.786;19.520;2023-12-14T01:40:33;155020.63;;;3.42
60936;BMP280;46804;51.786;19.520;2023-12-14T01:44:33;155009.13;;;3.38
60936;BMP280;46804;51.786;19.520;2023-12-14T01:48:34;155009.13;;;3.38
60936;BMP280;46804;51.786;19.520;2023-12-14T01:52:35;155015.50;;;3.40
60936;BMP280;46804;51.786;19.520;2023-12-14T01:56:36;155018.03;;;3.41
60936;BMP280;46804;51.786;19.520;2023-12-14T02:00:49;155007.81;;;3.37
60936;BMP280;46804;51.786;19.520;2023-12-14T02:04:52;155021.88;;;3.42
60936;BMP280;46804;51.786;19.520;2023-12-14T02:08:53;154998.91;;;3.34
60936;BMP280;46804;51.786;19.520;2023-12-14T02:12:54;155000.19;;;3.34
60936;BMP280;46804;51.786;19.520;2023-12-14T02:16:55;155015.50;;;3.40
60936;BMP280;46804;51.786;19.520;2023-12-14T02:20:56;155012.94;;;3.39
60936;BMP280;46804;51.786;19.520;2023-12-14T02:24:57;155011.66;;;3.38
60936;BMP280;46804;51.786;19.520;2023-12-14T02:28:58;155000.19;;;3.34
60936;BMP280;46804;51.786;19.520;2023-12-14T02:32:58;154979.75;;;3.26
60936;BMP280;46804;51.786;19.520;2023-12-14T02:36:59;154970.84;;;3.23
60936;BMP280;46804;51.786;19.520;2023-12-14T02:41:00;155006.56;;;3.37
60936;BMP280;46804;51.786;19.520;2023-12-14T02:45:02;154982.31;;;3.27
60936;BMP280;46804;51.786;19.520;2023-12-14T02:49:03;154995.06;;;3.32
60936;BMP280;46804;51.786;19.520;2023-12-14T02:53:04;154970.84;;;3.23
60936;BMP280;46804;51.786;19.520;2023-12-14T02:57:05;154963.22;;;3.20
60936;BMP280;46804;51.786;19.520;2023-12-14T03:01:06;154970.84;;;3.23
60936;BMP280;46804;51.786;19.520;2023-12-14T03:05:07;154958.09;;;3.18
60936;BMP280;46804;51.786;19.520;2023-12-14T03:09:07;154969.56;;;3.22
60936;BMP280;46804;51.786;19.520;2023-12-14T03:13:08;154975.94;;;3.25
60936;BMP280;46804;51.786;19.520;2023-12-14T03:17:09;154981.06;;;3.27
60936;BMP280;46804;51.786;19.520;2023-12-14T03:21:13;154983.59;;;3.28
60936;BMP280;46804;51.786;19.520;2023-12-14T03:25:14;154981.06;;;3.27
60936;BMP280;46804;51.786;19.520;2023-12-14T03:29:16;154969.56;;;3.22
60936;BMP280;46804;51.786;19.520;2023-12-14T03:33:17;154967.00;;;3.21
60936;BMP280;46804;51.786;19.520;2023-12-14T03:37:17;154969.56;;;3.22
60936;BMP280;46804;51.786;19.520;2023-12-14T03:41:18;154987.44;;;3.29
60936;BMP280;46804;51.786;19.520;2023-12-14T03:45:19;154963.22;;;3.20
60936;BMP280;46804;51.786;19.520;2023-12-14T03:49:20;154944.03;;;3.12
60936;BMP280;46804;51.786;19.520;2023-12-14T03:53:21;154961.88;;;3.19
60936;BMP280;46804;51.786;19.520;2023-12-14T03:57:21;154986.16;;;3.29
60936;BMP280;46804;51.786;19.520;2023-12-14T04:01:22;154972.09;;;3.23
60936;BMP280;46804;51.786;19.520;2023-12-14T04:05:23;154951.72;;;3.15
60936;BMP280;46804;51.786;19.520;2023-12-14T04:09:24;154975.94;;;3.25
60936;BMP280;46804;51.786;19.520;2023-12-14T04:13:25;154960.63;;;3.19
60936;BMP280;46804;51.786;19.520;2023-12-14T04:17:26;154935.13;;;3.09
60936;BMP280;46804;51.786;19.520;2023-12-14T04:21:26;154944.03;;;3.12
60936;BMP280;46804;51.786;19.520;2023-12-14T04:25:27;154937.66;;;3.10
60936;BMP280;46804;51.786;19.520;2023-12-14T04:29:29;154942.78;;;3.12
60936;BMP280;46804;51.786;19.520;2023-12-14T04:33:30;154946.63;;;3.13
60936;BMP280;46804;51.786;19.520;2023-12-14T04:37:32;154955.53;;;3.17
60936;BMP280;46804;51.786;19.520;2023-12-14T04:41:33;154936.41;;;3.09
60936;BMP280;46804;51.786;19.520;2023-12-14T04:45:34;154936.41;;;3.09
60936;BMP280;46804;51.786;19.520;2023-12-14T04:49:35;154965.72;;;3.21
60936;BMP280;46804;51.786;19.520;2023-12-14T04:53:36;154955.53;;;3.17
60936;BMP280;46804;51.786;19.520;2023-12-14T04:57:37;154933.81;;;3.08
60936;BMP280;46804;51.786;19.520;2023-12-14T05:01:37;154942.78;;;3.12
60936;BMP280;46804;51.786;19.520;2023-12-14T05:05:38;154961.88;;;3.19
60936;BMP280;46804;51.786;19.520;2023-12-14T05:09:39;154981.06;;;3.27
60936;BMP280;46804;51.786;19.520;2023-12-14T05:13:40;154991.28;;;3.31
60936;BMP280;46804;51.786;19.520;2023-12-14T05:17:41;155007.81;;;3.37
60936;BMP280;46804;51.786;19.520;2023-12-14T05:21:42;154995.06;;;3.32
60936;BMP280;46804;51.786;19.520;2023-12-14T05:25:44;154988.69;;;3.30
60936;BMP280;46804;51.786;19.520;2023-12-14T05:29:44;154997.66;;;3.33
60936;BMP280;46804;51.786;19.520;2023-12-14T05:33:45;154958.09;;;3.18
60936;BMP280;46804;51.786;19.520;2023-12-14T05:37:46;154972.09;;;3.23
60936;BMP280;46804;51.786;19.520;2023-12-14T05:41:47;154977.22;;;3.25
60936;BMP280;46804;51.786;19.520;2023-12-14T05:45:48;154967.00;;;3.21
60936;BMP280;46804;51.786;19.520;2023-12-14T05:49:48;154951.72;;;3.15
60936;BMP280;46804;51.786;19.520;2023-12-14T05:53:50;154945.31;;;3.13
60936;BMP280;46804;51.786;19.520;2023-12-14T05:57:51;154950.41;;;3.15
60936;BMP280;46804;51.786;19.520;2023-12-14T06:01:56;154965.72;;;3.21
60936;BMP280;46804;51.786;19.520;2023-12-14T06:05:57;154978.47;;;3.26
60936;BMP280;46804;51.786;19.520;2023-12-14T06:09:58;154965.72;;;3.21
60936;BMP280;46804;51.786;19.520;2023-12-14T06:13:59;154956.78;;;3.17
60936;BMP280;46804;51.786;19.520;2023-12-14T06:18:00;154973.38;;;3.24
60936;BMP280;46804;51.786;19.520;2023-12-14T06:22:01;154968.25;;;3.22
60936;BMP280;46804;51.786;19.520;2023-12-14T06:26:03;154970.84;;;3.23
60936;BMP280;46804;51.786;19.520;2023-12-14T06:30:04;154958.09;;;3.18
60936;BMP280;46804;51.786;19.520;2023-12-14T06:34:06;154981.06;;;3.27
60936;BMP280;46804;51.786;19.520;2023-12-14T06:38:07;154991.28;;;3.31
60936;BMP280;46804;51.786;19.520;2023-12-14T06:42:08;154970.84;;;3.23
60936;BMP280;46804;51.786;19.520;2023-12-14T06:46:09;154956.78;;;3.17
60936;BMP280;46804;51.786;19.520;2023-12-14T06:50:10;154979.75;;;3.26
60936;BMP280;46804;51.786;19.520;2023-12-14T06:54:10;154986.16;;;3.29
60936;BMP280;46804;51.786;19.520;2023-12-14T06:58:11;154954.25;;;3.16
60936;BMP280;46804;51.786;19.520;2023-12-14T07:02:12;154941.50;;;3.11
60936;BMP280;46804;51.786;19.520;2023-12-14T07:06:14;154953.00;;;3.16
60936;BMP280;46804;51.786;19.520;2023-12-14T07:10:15;154975.94;;;3.25
60936;BMP280;46804;51.786;19.520;2023-12-14T07:14:16;154972.09;;;3.23
60936;BMP280;46804;51.786;19.520;2023-12-14T07:18:17;155004.03;;;3.36
60936;BMP280;46804;51.786;19.520;2023-12-14T07:22:17;154982.31;;;3.27
60936;BMP280;46804;51.786;19.520;2023-12-14T07:26:18;155002.75;;;3.35
60936;BMP280;46804;51.786;19.520;2023-12-14T07:30:19;154973.38;;;3.24
60936;BMP280;46804;51.786;19.520;2023-12-14T07:34:20;155000.19;;;3.34
60936;BMP280;46804;51.786;19.520;2023-12-14T07:38:21;154940.19;;;3.11
60936;BMP280;46804;51.786;19.520;2023-12-14T07:42:22;154988.69;;;3.30
60936;BMP280;46804;51.786;19.520;2023-12-14T07:46:23;155011.66;;;3.38
60936;BMP280;46804;51.786;19.520;2023-12-14T07:50:24;155007.81;;;3.37
60936;BMP280;46804;51.786;19.520;2023-12-14T07:54:24;155014.25;;;3.39
60936;BMP280;46804;51.786;19.520;2023-12-14T07:58:27;154938.94;;;3.10
60936;BMP280;46804;51.786;19.520;2023-12-14T08:02:28;154965.72;;;3.21
60936;BMP280;46804;51.786;19.520;2023-12-14T08:06:29;154972.09;;;3.23
60936;BMP280;46804;51.786;19.520;2023-12-14T08:10:30;154975.94;;;3.25
60936;BMP280;46804;51.786;19.520;2023-12-14T08:14:32;154987.44;;;3.29
60936;BMP280;46804;51.786;19.520;2023-12-14T08:18:34;155002.75;;;3.35
60936;BMP280;46804;51.786;19.520;2023-12-14T08:22:35;155001.44;;;3.35
60936;BMP280;46804;51.786;19.520;2023-12-14T08:26:36;154986.16;;;3.29
60936;BMP280;46804;51.786;19.520;2023-12-14T08:30:37;154979.75;;;3.26
60936;BMP280;46804;51.786;19.520;2023-12-14T08:34:40;154972.09;;;3.23
60936;BMP280;46804;51.786;19.520;2023-12-14T08:38:41;154969.56;;;3.22
60936;BMP280;46804;51.786;19.520;2023-12-14T08:42:42;155014.25;;;3.39
60936;BMP280;46804;51.786;19.520;2023-12-14T08:46:45;154991.28;;;3.31
60936;BMP280;46804;51.786;19.520;2023-12-14T08:50:45;155009.13;;;3.38
60936;BMP280;46804;51.786;19.520;2023-12-14T08:54:46;155058.91;;;3.57
60936;BMP280;46804;51.786;19.520;2023-12-14T08:58:47;155014.25;;;3.39
60936;BMP280;46804;51.786;19.520;2023-12-14T09:02:49;155029.53;;;3.45
60936;BMP280;46804;51.786;19.520;2023-12-14T09:06:50;155052.50;;;3.54
60936;BMP280;46804;51.786;19.520;2023-12-14T09:10:52;155058.91;;;3.57
60936;BMP280;46804;51.786;19.520;2023-12-14T09:14:52;155019.34;;;3.41
60936;BMP280;46804;51.786;19.520;2023-12-14T09:18:53;155006.56;;;3.37
60936;BMP280;46804;51.786;19.520;2023-12-14T09:22:54;155033.38;;;3.47
60936;BMP280;46804;51.786;19.520;2023-12-14T09:26:55;155043.59;;;3.51
60936;BMP280;46804;51.786;19.520;2023-12-14T09:30:56;155006.56;;;3.37
60936;BMP280;46804;51.786;19.520;2023-12-14T09:34:57;155047.38;;;3.52
60936;BMP280;46804;51.786;19.520;2023-12-14T09:38:57;155019.34;;;3.41
60936;BMP280;46804;51.786;19.520;2023-12-14T09:42:58;154978.47;;;3.26
60936;BMP280;46804;51.786;19.520;2023-12-14T09:47:00;154998.91;;;3.34
60936;BMP280;46804;51.786;19.520;2023-12-14T09:51:01;155027.00;;;3.44
60936;BMP280;46804;51.786;19.520;2023-12-14T09:55:02;155011.66;;;3.38
60936;BMP280;46804;51.786;19.520;2023-12-14T09:59:06;155009.13;;;3.38
60936;BMP280;46804;51.786;19.520;2023-12-14T10:03:27;154981.06;;;3.27
60936;BMP280;46804;51.786;19.520;2023-12-14T10:07:30;154951.72;;;3.15
60936;BMP280;46804;51.786;19.520;2023-12-14T10:11:31;155016.78;;;3.40
60936;BMP280;46804;51.786;19.520;2023-12-14T10:15:42;155005.28;;;3.36
60936;BMP280;46804;51.786;19.520;2023-12-14T10:19:44;155037.22;;;3.48
60936;BMP280;46804;51.786;19.520;2023-12-14T10:23:45;155039.75;;;3.49
60936;BMP280;46804;51.786;19.520;2023-12-14T10:27:47;155057.59;;;3.56
60936;BMP280;46804;51.786;19.520;2023-12-14T10:31:48;155016.78;;;3.40
60936;BMP280;46804;51.786;19.520;2023-12-14T10:35:49;155025.72;;;3.44
60936;BMP280;46804;51.786;19.520;2023-12-14T10:39:50;155056.34;;;3.56
60936;BMP280;46804;51.786;19.520;2023-12-14T10:43:55;155021.88;;;3.42
60936;BMP280;46804;51.786;19.520;2023-12-14T10:47:58;155037.22;;;3.48
60936;BMP280;46804;51.786;19.520;2023-12-14T10:51:59;155042.31;;;3.50
60936;BMP280;46804;51.786;19.520;2023-12-14T10:56:03;155035.91;;;3.48
60936;BMP280;46804;51.786;19.520;2023-12-14T11:00:07;155067.81;;;3.60
60936;BMP280;46804;51.786;19.520;2023-12-14T11:04:10;154997.66;;;3.33
60936;BMP280;46804;51.786;19.520;2023-12-14T11:08:14;154982.31;;;3.27
60936;BMP280;46804;51.786;19.520;2023-12-14T11:12:19;155016.78;;;3.40
60936;BMP280;46804;51.786;19.520;2023-12-14T11:16:25;154961.88;;;3.19
60936;BMP280;46804;51.786;19.520;2023-12-14T11:20:27;154998.91;;;3.34
60936;BMP280;46804;51.786;19.520;2023-12-14T11:24:28;154996.34;;;3.33
60936;BMP280;46804;51.786;19.520;2023-12-14T11:28:35;155012.94;;;3.39
60936;BMP280;46804;51.786;19.520;2023-12-14T11:32:36;155009.13;;;3.38
60936;BMP280;46804;51.786;19.520;2023-12-14T11:36:37;155047.38;;;3.52
60936;BMP280;46804;51.786;19.520;2023-12-14T11:40:42;154984.84;;;3.28
60936;BMP280;46804;51.786;19.520;2023-12-14T11:44:43;154983.59;;;3.28
60936;BMP280;46804;51.786;19.520;2023-12-14T11:48:45;155025.72;;;3.44
60936;BMP280;46804;51.786;19.520;2023-12-14T11:52:55;154996.34;;;3.33
60936;BMP280;46804;51.786;19.520;2023-12-14T11:56:56;154983.59;;;3.28
60936;BMP280;46804;51.786;19.520;2023-12-14T12:01:13;154964.47;;;3.20
60936;BMP280;46804;51.786;19.520;2023-12-14T12:05:14;155030.84;;;3.46
60936;BMP280;46804;51.786;19.520;2023-12-14T12:09:41;155009.13;;;3.38
60936;BMP280;46804;51.786;19.520;2023-12-14T12:13:42;155014.25;;;3.39
60936;BMP280;46804;51.786;19.520;2023-12-14T12:17:42;155010.41;;;3.38
60936;BMP280;46804;51.786;19.520;2023-12-14T12:21:45;155009.13;;;3.38
60936;BMP280;46804;51.786;19.520;2023-12-14T12:25:46;155056.34;;;3.56
60936;BMP280;46804;51.786;19.520;2023-12-14T12:29:47;155084.41;;;3.67
60936;BMP280;46804;51.786;19.520;2023-12-14T12:33:48;155039.75;;;3.49
60936;BMP280;46804;51.786;19.520;2023-12-14T12:37:49;155078.03;;;3.64
60936;BMP280;46804;51.786;19.520;2023-12-14T12:41:54;155019.34;;;3.41
60936;BMP280;46804;51.786;19.520;2023-12-14T12:45:54;155039.75;;;3.49
60936;BMP280;46804;51.786;19.520;2023-12-14T12:49:56;155001.44;;;3.35
60936;BMP280;46804;51.786;19.520;2023-12-14T12:53:59;155023.16;;;3.43
60936;BMP280;46804;51.786;19.520;2023-12-14T12:58:01;155020.63;;;3.42
60936;BMP280;46804;51.786;19.520;2023-12-14T13:02:06;154969.56;;;3.22
60936;BMP280;46804;51.786;19.520;2023-12-14T13:06:07;154938.94;;;3.10
60936;BMP280;46804;51.786;19.520;2023-12-14T13:10:08;154953.00;;;3.16
60936;BMP280;46804;51.786;19.520;2023-12-14T13:14:10;155015.50;;;3.40
60936;BMP280;46804;51.786;19.520;2023-12-14T13:18:11;154965.72;;;3.21
60936;BMP280;46804;51.786;19.520;2023-12-14T13:22:12;154917.25;;;3.02
60936;BMP280;46804;51.786;19.520;2023-12-14T13:26:13;154930.03;;;3.07
60936;BMP280;46804;51.786;19.520;2023-12-14T13:30:14;154927.44;;;3.06
60936;BMP280;46804;51.786;19.520;2023-12-14T13:34:17;154986.16;;;3.29
60936;BMP280;46804;51.786;19.520;2023-12-14T13:38:18;154932.56;;;3.08
60936;BMP280;46804;51.786;19.520;2023-12-14T13:42:19;154940.19;;;3.11
60936;BMP280;46804;51.786;19.520;2023-12-14T13:46:20;154951.72;;;3.15
60936;BMP280;46804;51.786;19.520;2023-12-14T13:50:21;154968.25;;;3.22
60936;BMP280;46804;51.786;19.520;2023-12-14T13:54:23;154984.84;;;3.28
60936;BMP280;46804;51.786;19.520;2023-12-14T13:58:23;154964.47;;;3.20
60936;BMP280;46804;51.786;19.520;2023-12-14T14:02:24;154963.22;;;3.20
60936;BMP280;46804;51.786;19.520;2023-12-14T14:06:28;154903.22;;;2.97
60936;BMP280;46804;51.786;19.520;2023-12-14T14:10:28;154861.13;;;2.80
60936;BMP280;46804;51.786;19.520;2023-12-14T14:14:29;154873.91;;;2.85
60936;BMP280;46804;51.786;19.520;2023-12-14T14:18:30;154899.38;;;2.95
60936;BMP280;46804;51.786;19.520;2023-12-14T14:22:31;154922.34;;;3.04
60936;BMP280;46804;51.786;19.520;2023-12-14T14:26:32;154879.00;;;2.87
60936;BMP280;46804;51.786;19.520;2023-12-14T14:30:33;154909.59;;;2.99
60936;BMP280;46804;51.786;19.520;2023-12-14T14:34:34;154923.66;;;3.04
60936;BMP280;46804;51.786;19.520;2023-12-14T14:38:36;154930.03;;;3.07
60936;BMP280;46804;51.786;19.520;2023-12-14T14:42:37;154917.25;;;3.02
60936;BMP280;46804;51.786;19.520;2023-12-14T14:46:37;154924.91;;;3.05
60936;BMP280;46804;51.786;19.520;2023-12-14T14:50:39;154947.88;;;3.14
60936;BMP280;46804;51.786;19.520;2023-12-14T14:54:39;154931.28;;;3.07
60936;BMP280;46804;51.786;19.520;2023-12-14T14:58:40;154965.72;;;3.21
60936;BMP280;46804;51.786;19.520;2023-12-14T15:02:41;154977.22;;;3.25
60936;BMP280;46804;51.786;19.520;2023-12-14T15:06:42;154992.53;;;3.31
60936;BMP280;46804;51.786;19.520;2023-12-14T15:10:43;154956.78;;;3.17
60936;BMP280;46804;51.786;19.520;2023-12-14T15:14:44;154955.53;;;3.17
60936;BMP280;46804;51.786;19.520;2023-12-14T15:18:45;154956.78;;;3.17
60936;BMP280;46804;51.786;19.520;2023-12-14T15:22:46;154983.59;;;3.28
60936;BMP280;46804;51.786;19.520;2023-12-14T15:26:46;155001.44;;;3.35
60936;BMP280;46804;51.786;19.520;2023-12-14T15:30:49;154993.81;;;3.32
60936;BMP280;46804;51.786;19.520;2023-12-14T15:34:50;154932.56;;;3.08
60936;BMP280;46804;51.786;19.520;2023-12-14T15:38:50;154944.03;;;3.12
60936;BMP280;46804;51.786;19.520;2023-12-14T15:42:51;154932.56;;;3.08
60936;BMP280;46804;51.786;19.520;2023-12-14T15:46:55;154917.25;;;3.02
60936;BMP280;46804;51.786;19.520;2023-12-14T15:50:55;154927.44;;;3.06
60936;BMP280;46804;51.786;19.520;2023-12-14T15:54:56;154922.34;;;3.04
60936;BMP280;46804;51.786;19.520;2023-12-14T15:58:57;154926.19;;;3.05
60936;BMP280;46804;51.786;19.520;2023-12-14T16:02:59;154910.88;;;3.00
60936;BMP280;46804;51.786;19.520;2023-12-14T16:06:59;154944.03;;;3.12
60936;BMP280;46804;51.786;19.520;2023-12-14T16:11:01;154922.34;;;3.04
60936;BMP280;46804;51.786;19.520;2023-12-14T16:15:03;154926.19;;;3.05
60936;BMP280;46804;51.786;19.520;2023-12-14T16:19:04;154875.16;;;2.86
60936;BMP280;46804;51.786;19.520;2023-12-14T16:23:05;154844.53;;;2.74
60936;BMP280;46804;51.786;19.520;2023-12-14T16:27:06;154894.28;;;2.93
60936;BMP280;46804;51.786;19.520;2023-12-14T16:31:07;154882.81;;;2.89
60936;BMP280;46804;51.786;19.520;2023-12-14T16:35:08;154871.31;;;2.84
60936;BMP280;46804;51.786;19.520;2023-12-14T16:39:09;154845.84;;;2.74
60936;BMP280;46804;51.786;19.520;2023-12-14T16:43:12;154881.53;;;2.88
60936;BMP280;46804;51.786;19.520;2023-12-14T16:47:16;154876.44;;;2.86
60936;BMP280;46804;51.786;19.520;2023-12-14T16:51:20;154859.84;;;2.80
60936;BMP280;46804;51.786;19.520;2023-12-14T16:55:20;154828.00;;;2.68
60936;BMP280;46804;51.786;19.520;2023-12-14T16:59:21;154830.53;;;2.69
60936;BMP280;46804;51.786;19.520;2023-12-14T17:03:22;154838.16;;;2.71
60936;BMP280;46804;51.786;19.520;2023-12-14T17:07:23;154821.56;;;2.65
60936;BMP280;46804;51.786;19.520;2023-12-14T17:11:24;154799.94;;;2.57
60936;BMP280;46804;51.786;19.520;2023-12-14T17:15:25;154820.31;;;2.65
60936;BMP280;46804;51.786;19.520;2023-12-14T17:19:26;154807.56;;;2.60
60936;BMP280;46804;51.786;19.520;2023-12-14T17:23:26;154810.09;;;2.61
60936;BMP280;46804;51.786;19.520;2023-12-14T17:27:27;154847.09;;;2.75
60936;BMP280;46804;51.786;19.520;2023-12-14T17:31:29;154854.75;;;2.78
60936;BMP280;46804;51.786;19.520;2023-12-14T17:35:30;154890.50;;;2.92
60936;BMP280;46804;51.786;19.520;2023-12-14T17:39:31;154849.63;;;2.76
60936;BMP280;46804;51.786;19.520;2023-12-14T17:43:31;154803.72;;;2.58
60936;BMP280;46804;51.786;19.520;2023-12-14T17:47:33;154784.63;;;2.51
60936;BMP280;46804;51.786;19.520;2023-12-14T17:51:38;154799.94;;;2.57
60936;BMP280;46804;51.786;19.520;2023-12-14T17:55:40;154768.03;;;2.44
60936;BMP280;46804;51.786;19.520;2023-12-14T17:59:41;154773.16;;;2.46
60936;BMP280;46804;51.786;19.520;2023-12-14T18:03:42;154740.00;;;2.34
60936;BMP280;46804;51.786;19.520;2023-12-14T18:07:43;154769.31;;;2.45
60936;BMP280;46804;51.786;19.520;2023-12-14T18:11:43;154748.88;;;2.37
60936;BMP280;46804;51.786;19.520;2023-12-14T18:15:45;154785.88;;;2.51
60936;BMP280;46804;51.786;19.520;2023-12-14T18:19:46;154780.78;;;2.49
60936;BMP280;46804;51.786;19.520;2023-12-14T18:23:47;154771.88;;;2.46
60936;BMP280;46804;51.786;19.520;2023-12-14T18:27:49;154750.19;;;2.37
60936;BMP280;46804;51.786;19.520;2023-12-14T18:31:51;154778.25;;;2.48
60936;BMP280;46804;51.786;19.520;2023-12-14T18:35:52;154746.38;;;2.36
60936;BMP280;46804;51.786;19.520;2023-12-14T18:39:53;154715.78;;;2.24
60936;BMP280;46804;51.786;19.520;2023-12-14T18:43:54;154705.56;;;2.20
60936;BMP280;46804;51.786;19.520;2023-12-14T18:47:55;154751.47;;;2.38
60936;BMP280;46804;51.786;19.520;2023-12-14T18:51:56;154743.84;;;2.35
60936;BMP280;46804;51.786;19.520;2023-12-14T18:55:57;154717.03;;;2.25
60936;BMP280;46804;51.786;19.520;2023-12-14T18:59:58;154703.00;;;2.19
60936;BMP280;46804;51.786;19.520;2023-12-14T19:03:59;154732.38;;;2.31
60936;BMP280;46804;51.786;19.520;2023-12-14T19:08:02;154748.88;;;2.37
60936;BMP280;46804;51.786;19.520;2023-12-14T19:12:03;154754.00;;;2.39
60936;BMP280;46804;51.786;19.520;2023-12-14T19:16:04;154751.47;;;2.38
60936;BMP280;46804;51.786;19.520;2023-12-14T19:20:09;154729.78;;;2.30
60936;BMP280;46804;51.786;19.520;2023-12-14T19:24:10;154733.63;;;2.31
60936;BMP280;46804;51.786;19.520;2023-12-14T19:28:11;154732.38;;;2.31
60936;BMP280;46804;51.786;19.520;2023-12-14T19:32:13;154738.72;;;2.33
60936;BMP280;46804;51.786;19.520;2023-12-14T19:36:14;154706.84;;;2.21
60936;BMP280;46804;51.786;19.520;2023-12-14T19:40:17;154673.69;;;2.08
60936;BMP280;46804;51.786;19.520;2023-12-14T19:44:18;154636.75;;;1.94
60936;BMP280;46804;51.786;19.520;2023-12-14T19:48:20;154606.13;;;1.82
60936;BMP280;46804;51.786;19.520;2023-12-14T19:52:21;154650.75;;;1.99
60936;BMP280;46804;51.786;19.520;2023-12-14T19:56:21;154631.66;;;1.92
60936;BMP280;46804;51.786;19.520;2023-12-14T20:00:22;154645.66;;;1.97
60936;BMP280;46804;51.786;19.520;2023-12-14T20:04:23;154635.44;;;1.93
60936;BMP280;46804;51.786;19.520;2023-12-14T20:08:24;154641.81;;;1.96
60936;BMP280;46804;51.786;19.520;2023-12-14T20:12:25;154644.38;;;1.97
60936;BMP280;46804;51.786;19.520;2023-12-14T20:16:26;154667.31;;;2.05
60936;BMP280;46804;51.786;19.520;2023-12-14T20:20:26;154703.00;;;2.19
60936;BMP280;46804;51.786;19.520;2023-12-14T20:24:27;154685.16;;;2.12
60936;BMP280;46804;51.786;19.520;2023-12-14T20:28:28;154627.81;;;1.90
60936;BMP280;46804;51.786;19.520;2023-12-14T20:32:29;154664.81;;;2.04
60936;BMP280;46804;51.786;19.520;2023-12-14T20:36:30;154623.97;;;1.89
60936;BMP280;46804;51.786;19.520;2023-12-14T20:40:35;154634.19;;;1.93
60936;BMP280;46804;51.786;19.520;2023-12-14T20:44:36;154648.22;;;1.98
60936;BMP280;46804;51.786;19.520;2023-12-14T20:48:37;154597.25;;;1.78
60936;BMP280;46804;51.786;19.520;2023-12-14T20:52:40;154585.72;;;1.74
60936;BMP280;46804;51.786;19.520;2023-12-14T20:56:43;154576.84;;;1.70
60936;BMP280;46804;51.786;19.520;2023-12-14T21:00:44;154601.03;;;1.80
60936;BMP280;46804;51.786;19.520;2023-12-14T21:04:45;154589.56;;;1.75
60936;BMP280;46804;51.786;19.520;2023-12-14T21:08:46;154598.50;;;1.79
60936;BMP280;46804;51.786;19.520;2023-12-14T21:12:46;154565.38;;;1.66
60936;BMP280;46804;51.786;19.520;2023-12-14T21:16:47;154597.25;;;1.78
60936;BMP280;46804;51.786;19.520;2023-12-14T21:20:51;154555.16;;;1.62
60936;BMP280;46804;51.786;19.520;2023-12-14T21:24:52;154546.22;;;1.59
60936;BMP280;46804;51.786;19.520;2023-12-14T21:29:00;154527.13;;;1.51
60936;BMP280;46804;51.786;19.520;2023-12-14T21:33:01;154562.78;;;1.65
60936;BMP280;46804;51.786;19.520;2023-12-14T21:37:01;154541.19;;;1.57
60936;BMP280;46804;51.786;19.520;2023-12-14T21:41:03;154523.31;;;1.50
60936;BMP280;46804;51.786;19.520;2023-12-14T21:45:05;154533.50;;;1.54
60936;BMP280;46804;51.786;19.520;2023-12-14T21:49:06;154534.78;;;1.54
60936;BMP280;46804;51.786;19.520;2023-12-14T21:53:06;154539.88;;;1.56
60936;BMP280;46804;51.786;19.520;2023-12-14T21:57:07;154547.53;;;1.59
60936;BMP280;46804;51.786;19.520;2023-12-14T22:01:08;154532.25;;;1.53
60936;BMP280;46804;51.786;19.520;2023-12-14T22:05:09;154502.94;;;1.42
60936;BMP280;46804;51.786;19.520;2023-12-14T22:09:10;154520.78;;;1.49
60936;BMP280;46804;51.786;19.520;2023-12-14T22:13:11;154516.94;;;1.47
60936;BMP280;46804;51.786;19.520;2023-12-14T22:17:12;154504.22;;;1.42
60936;BMP280;46804;51.786;19.520;2023-12-14T22:21:12;154515.69;;;1.47
60936;BMP280;46804;51.786;19.520;2023-12-14T22:25:13;154481.28;;;1.34
60936;BMP280;46804;51.786;19.520;2023-12-14T22:29:14;154524.59;;;1.50
60936;BMP280;46804;51.786;19.520;2023-12-14T22:33:15;154486.38;;;1.35
60936;BMP280;46804;51.786;19.520;2023-12-14T22:37:17;154478.69;;;1.33
60936;BMP280;46804;51.786;19.520;2023-12-14T22:41:18;154514.41;;;1.46
60936;BMP280;46804;51.786;19.520;2023-12-14T22:45:19;154513.16;;;1.46
60936;BMP280;46804;51.786;19.520;2023-12-14T22:49:20;154513.16;;;1.46